Time;durP1;ratioP1;P1;durP2;ratioP2;P2;SDS_P1;SDS_P2;PMS_P1;PMS_P2;Temp;Humidity;BMP_temperature;BMP_pressure;BME280_temperature;BME280_humidity;BME280_pressure;Samples;Min_cycle;Max_cycle;Signal;HPM_P1;HPM_P2
2021/06/19 00:00:29;;;;;;;1.10;1.00;;;31.50;46.90;;;;;;5054811;28;20036;-63
2021/06/19 00:02:56;;;;;;;1.35;1.02;;;31.50;46.80;;;;;;5063369;28;20113;-63
2021/06/19 00:05:22;;;;;;;1.15;1.00;;;31.50;46.80;;;;;;5065800;28;20047;-63
2021/06/19 00:07:48;;;;;;;1.00;0.90;;;31.50;46.70;;;;;;5064687;28;20033;-63
2021/06/19 00:10:15;;;;;;;1.30;1.10;;;31.50;46.80;;;;;;5065914;28;20466;-64
2021/06/19 00:12:42;;;;;;;1.40;1.00;;;31.50;46.80;;;;;;5057307;28;20033;-63
2021/06/19 00:15:10;;;;;;;1.27;1.05;;;31.50;46.90;;;;;;5062010;28;20044;-64
2021/06/19 00:17:37;;;;;;;1.10;1.00;;;31.50;46.80;;;;;;5051391;28;20033;-63
2021/06/19 00:20:14;;;;;;;1.50;1.02;;;31.60;46.80;;;;;;5062758;28;20047;-62
2021/06/19 00:22:41;;;;;;;1.45;1.00;;;31.60;46.70;;;;;;5058571;28;20120;-63
2021/06/19 00:25:08;;;;;;;1.35;1.13;;;31.60;46.60;;;;;;5064802;28;20111;-63
2021/06/19 00:27:36;;;;;;;1.45;1.10;;;31.60;46.70;;;;;;5048989;28;20484;-63
2021/06/19 00:30:03;;;;;;;1.83;1.00;;;31.60;46.70;;;;;;5056350;28;20131;-64
2021/06/19 00:32:28;;;;;;;1.25;1.02;;;31.60;46.70;;;;;;5061821;28;20158;-63
2021/06/19 00:34:54;;;;;;;1.23;1.00;;;31.60;46.70;;;;;;5059315;28;20115;-64
2021/06/19 00:37:20;;;;;;;1.33;1.10;;;31.60;46.70;;;;;;5064210;28;20040;-63
2021/06/19 00:39:45;;;;;;;1.20;1.00;;;31.60;46.70;;;;;;5063718;28;20513;-64
2021/06/19 00:42:11;;;;;;;1.70;1.13;;;31.60;46.60;;;;;;5048614;28;20846;-63
2021/06/19 00:44:36;;;;;;;1.40;1.10;;;31.60;46.50;;;;;;5062414;28;20025;-64
2021/06/19 00:47:03;;;;;;;1.42;1.10;;;31.60;46.50;;;;;;5051499;28;20109;-64
2021/06/19 00:49:28;;;;;;;1.20;1.05;;;31.60;46.60;;;;;;5051821;28;20368;-64
2021/06/19 00:51:54;;;;;;;1.58;1.20;;;31.60;46.80;;;;;;5058528;28;20025;-63
2021/06/19 00:54:20;;;;;;;1.40;1.00;;;31.60;47.20;;;;;;5050759;28;20037;-63
2021/06/19 00:56:48;;;;;;;1.98;1.05;;;31.70;46.70;;;;;;5054282;28;20032;-64
2021/06/19 00:59:15;;;;;;;1.30;1.08;;;31.70;46.60;;;;;;5044325;28;20033;-63
2021/06/19 01:01:40;;;;;;;1.83;1.20;;;31.70;46.60;;;;;;5045051;28;20134;-64
2021/06/19 01:04:06;;;;;;;1.40;1.10;;;31.70;46.50;;;;;;5055624;28;20074;-63
2021/06/19 01:06:34;;;;;;;1.33;1.00;;;31.70;46.50;;;;;;5055173;28;20036;-64
2021/06/19 01:09:00;;;;;;;1.60;1.10;;;31.70;46.60;;;;;;5061891;28;20036;-63
2021/06/19 01:11:26;;;;;;;1.40;1.15;;;31.70;46.50;;;;;;5062566;28;20037;-64
2021/06/19 01:13:53;;;;;;;1.35;1.10;;;31.70;46.50;;;;;;5055649;28;20036;-64
2021/06/19 01:16:20;;;;;;;1.63;0.93;;;31.70;46.60;;;;;;5051509;28;20197;-64
2021/06/19 01:18:48;;;;;;;1.40;1.02;;;31.70;46.60;;;;;;5057375;28;20033;-64
2021/06/19 01:21:18;;;;;;;1.27;1.02;;;31.70;46.50;;;;;;5049344;28;20029;-63
2021/06/19 01:23:45;;;;;;;1.10;1.00;;;31.70;46.50;;;;;;5044271;28;20602;-64
2021/06/19 01:26:19;;;;;;;1.73;1.10;;;31.70;46.50;;;;;;5053457;28;20095;-63
2021/06/19 01:28:46;;;;;;;1.17;1.00;;;31.70;46.50;;;;;;5048592;28;20036;-63
2021/06/19 01:31:13;;;;;;;1.45;1.10;;;31.70;46.50;;;;;;5050690;28;20025;-63
2021/06/19 01:33:40;;;;;;;1.38;1.10;;;31.70;46.50;;;;;;5062808;28;20482;-63
2021/06/19 01:36:07;;;;;;;1.67;1.30;;;31.70;46.50;;;;;;5063939;28;20024;-63
2021/06/19 01:38:38;;;;;;;2.47;1.10;;;31.70;46.50;;;;;;5057312;28;20060;-64
2021/06/19 01:41:04;;;;;;;1.58;1.10;;;31.70;46.50;;;;;;5061396;28;20020;-64
2021/06/19 01:43:30;;;;;;;1.20;1.00;;;31.80;46.60;;;;;;5063002;28;20325;-64
2021/06/19 01:45:55;;;;;;;1.05;0.95;;;31.80;46.50;;;;;;5049729;28;20033;-63
2021/06/19 01:48:21;;;;;;;1.58;1.20;;;31.80;46.50;;;;;;5046020;28;20368;-64
2021/06/19 01:50:46;;;;;;;1.40;1.10;;;31.80;46.50;;;;;;5061368;28;20037;-64
2021/06/19 01:53:12;;;;;;;1.50;1.20;;;31.80;46.40;;;;;;5063319;28;20024;-64
2021/06/19 01:55:39;;;;;;;1.25;1.10;;;31.80;46.40;;;;;;5052275;28;20120;-63
2021/06/19 01:58:05;;;;;;;1.63;1.00;;;31.80;46.40;;;;;;5043805;28;20116;-64
2021/06/19 02:00:34;;;;;;;1.27;1.00;;;31.80;46.40;;;;;;5052080;28;20176;-64
2021/06/19 02:03:00;;;;;;;1.50;1.10;;;31.80;46.40;;;;;;5047030;28;20048;-64
2021/06/19 02:05:26;;;;;;;1.20;1.10;;;31.80;46.40;;;;;;5054680;28;20052;-64
2021/06/19 02:07:56;;;;;;;1.30;1.08;;;31.80;46.40;;;;;;5063216;28;20048;-65
2021/06/19 02:10:30;;;;;;;1.40;1.08;;;31.80;46.40;;;;;;5059485;28;20128;-63
2021/06/19 02:12:56;;;;;;;1.27;1.00;;;31.80;46.40;;;;;;5062338;28;20039;-64
2021/06/19 02:15:22;;;;;;;1.20;1.10;;;31.80;46.60;;;;;;5053216;28;20040;-63
2021/06/19 02:17:49;;;;;;;1.38;1.10;;;31.80;46.30;;;;;;5052894;28;20033;-63
2021/06/19 02:20:16;;;;;;;1.13;1.00;;;31.80;46.20;;;;;;5061056;28;20052;-64
2021/06/19 02:22:41;;;;;;;1.50;1.27;;;31.70;46.80;;;;;;5051049;28;20733;-64
2021/06/19 02:25:10;;;;;;;1.65;1.10;;;31.70;46.40;;;;;;5057098;28;20064;-64
2021/06/19 02:27:36;;;;;;;1.23;1.00;;;31.70;46.40;;;;;;5064321;28;20738;-64
2021/06/19 02:30:04;;;;;;;1.88;1.20;;;31.60;46.40;;;;;;5053264;28;20136;-63
2021/06/19 02:32:29;;;;;;;1.10;1.00;;;31.50;46.40;;;;;;5059394;28;20035;-64
2021/06/19 02:34:55;;;;;;;1.80;1.20;;;31.50;46.50;;;;;;5065704;28;20128;-64
2021/06/19 02:37:20;;;;;;;1.23;1.10;;;31.50;46.50;;;;;;5058476;28;20052;-64
2021/06/19 02:39:46;;;;;;;1.38;1.00;;;31.40;46.50;;;;;;5060089;28;20498;-64
2021/06/19 02:42:12;;;;;;;1.80;1.33;;;31.40;46.60;;;;;;5045395;28;20041;-63
2021/06/19 02:44:37;;;;;;;1.30;1.00;;;31.40;46.60;;;;;;5047428;28;20025;-63
2021/06/19 02:47:04;;;;;;;1.48;1.30;;;31.30;46.60;;;;;;5056565;28;20052;-64
2021/06/19 02:49:30;;;;;;;1.40;1.05;;;31.30;46.60;;;;;;5045931;28;20029;-64
2021/06/19 02:51:56;;;;;;;1.15;1.00;;;31.30;46.60;;;;;;5057596;28;20424;-64
2021/06/19 02:54:22;;;;;;;1.70;1.23;;;31.30;46.70;;;;;;5064388;28;20071;-64
2021/06/19 02:56:47;;;;;;;1.20;1.00;;;31.30;46.70;;;;;;5060535;28;20060;-64
2021/06/19 02:59:13;;;;;;;1.20;1.10;;;31.20;46.70;;;;;;5060736;28;20082;-64
2021/06/19 03:01:39;;;;;;;1.50;1.20;;;31.20;46.70;;;;;;5052495;28;20094;-64
2021/06/19 03:04:04;;;;;;;2.17;1.20;;;31.20;46.70;;;;;;5054978;28;20035;-63
2021/06/19 03:06:30;;;;;;;1.58;1.20;;;31.10;46.60;;;;;;5063862;28;20064;-63
2021/06/19 03:08:55;;;;;;;1.55;1.20;;;31.10;46.70;;;;;;5051573;28;20025;-63
2021/06/19 03:11:22;;;;;;;1.40;1.13;;;31.10;46.70;;;;;;5058146;28;20035;-64
2021/06/19 03:13:47;;;;;;;1.92;1.17;;;31.10;46.80;;;;;;5056410;28;20163;-63
2021/06/19 03:16:13;;;;;;;1.73;1.30;;;31.10;46.80;;;;;;5060100;28;20107;-63
2021/06/19 03:18:39;;;;;;;1.20;1.10;;;31.00;46.80;;;;;;5054916;28;20102;-63
2021/06/19 03:21:05;;;;;;;1.98;1.50;;;31.00;46.70;;;;;;5051569;28;20555;-64
2021/06/19 03:23:30;;;;;;;3.30;2.00;;;31.00;46.00;;;;;;5047009;28;20029;-63
2021/06/19 03:25:56;;;;;;;4.80;2.70;;;30.90;44.70;;;;;;5055590;28;20185;-63
2021/06/19 03:28:22;;;;;;;4.53;2.88;;;30.80;44.30;;;;;;5065371;28;20025;-63
2021/06/19 03:30:48;;;;;;;4.00;2.90;;;30.60;44.00;;;;;;5061539;28;20523;-63
2021/06/19 03:33:15;;;;;;;4.63;3.30;;;30.50;44.40;;;;;;5054161;28;20021;-61
2021/06/19 03:35:41;;;;;;;4.15;2.83;;;30.40;44.50;;;;;;5053578;28;20136;-62
2021/06/19 03:38:07;;;;;;;4.13;2.88;;;30.30;44.60;;;;;;5065678;28;20131;-62
2021/06/19 03:40:34;;;;;;;5.53;3.92;;;30.20;44.70;;;;;;5054421;28;20033;-62
2021/06/19 03:43:01;;;;;;;5.75;3.60;;;30.00;45.30;;;;;;5060614;28;20043;-63
2021/06/19 03:45:29;;;;;;;4.85;3.45;;;29.70;45.30;;;;;;5060707;28;20355;-63
2021/06/19 03:47:55;;;;;;;4.55;3.20;;;29.40;45.70;;;;;;5065227;28;20359;-63
2021/06/19 03:50:22;;;;;;;4.85;3.17;;;29.40;45.80;;;;;;5055166;28;20155;-63
2021/06/19 03:52:48;;;;;;;5.53;3.10;;;29.40;45.90;;;;;;5054923;28;21026;-63
2021/06/19 03:55:14;;;;;;;3.78;2.65;;;29.50;45.90;;;;;;5055824;28;20107;-63
2021/06/19 03:57:40;;;;;;;4.95;3.10;;;29.50;45.80;;;;;;5055800;28;20029;-63
2021/06/19 04:00:13;;;;;;;4.55;3.10;;;29.40;45.90;;;;;;5052391;28;20344;-63
2021/06/19 04:02:40;;;;;;;4.78;3.55;;;29.30;46.20;;;;;;5064348;28;20020;-62
2021/06/19 04:05:07;;;;;;;6.78;3.40;;;29.00;46.50;;;;;;5063332;28;20029;-63
2021/06/19 04:07:32;;;;;;;4.70;3.17;;;29.00;46.80;;;;;;5055750;28;20096;-63
2021/06/19 04:09:58;;;;;;;6.18;3.60;;;29.00;47.40;;;;;;5060827;28;20041;-63
2021/06/19 04:12:24;;;;;;;6.15;3.50;;;28.90;46.90;;;;;;5054039;28;20498;-63
2021/06/19 04:14:50;;;;;;;5.88;3.13;;;28.80;47.10;;;;;;5051166;28;20017;-63
2021/06/19 04:17:16;;;;;;;5.80;3.08;;;28.80;47.10;;;;;;5062855;28;20109;-63
2021/06/19 04:19:43;;;;;;;4.20;2.75;;;28.80;47.10;;;;;;5068503;28;20056;-63
2021/06/19 04:22:10;;;;;;;4.05;2.80;;;28.90;47.10;;;;;;5052411;28;20444;-63
2021/06/19 04:24:35;;;;;;;5.38;3.00;;;28.90;47.10;;;;;;5062992;28;20545;-63
2021/06/19 04:27:02;;;;;;;4.32;2.97;;;28.90;47.10;;;;;;5057739;28;20054;-63
2021/06/19 04:29:30;;;;;;;6.35;2.80;;;28.90;47.30;;;;;;5055511;28;20108;-63
2021/06/19 04:31:57;;;;;;;8.32;3.50;;;28.90;47.40;;;;;;5064128;28;20094;-63
2021/06/19 04:34:23;;;;;;;4.65;3.05;;;28.80;47.50;;;;;;5062749;28;20480;-64
2021/06/19 04:36:52;;;;;;;4.55;2.75;;;28.80;47.50;;;;;;5064344;28;20033;-63
2021/06/19 04:39:18;;;;;;;3.88;2.90;;;28.80;47.80;;;;;;5054399;28;20036;-63
2021/06/19 04:41:52;;;;;;;3.88;2.65;;;28.70;47.80;;;;;;5052924;28;20388;-63
2021/06/19 04:47:02;;;;;;;4.25;2.70;;;28.70;48.10;;;;;;5048139;28;20463;-63
2021/06/19 04:49:28;;;;;;;4.22;2.85;;;28.60;48.10;;;;;;5054196;28;20040;-63
2021/06/19 04:51:53;;;;;;;3.78;2.85;;;28.60;48.20;;;;;;5057567;28;20121;-63
2021/06/19 04:54:20;;;;;;;5.38;3.13;;;28.60;48.30;;;;;;5048612;28;20387;-63
2021/06/19 04:56:46;;;;;;;5.35;2.90;;;28.60;48.30;;;;;;5057601;28;20115;-62
2021/06/19 04:59:12;;;;;;;6.32;3.47;;;28.60;48.60;;;;;;5059935;28;20499;-63
2021/06/19 05:01:37;;;;;;;4.10;3.10;;;28.50;48.70;;;;;;5054380;28;20067;-63
2021/06/19 05:04:03;;;;;;;4.13;2.92;;;28.50;48.80;;;;;;5047428;28;20120;-63
2021/06/19 05:06:29;;;;;;;5.57;3.22;;;28.50;48.90;;;;;;5064497;28;20024;-63
2021/06/19 05:08:55;;;;;;;4.63;2.80;;;28.50;49.10;;;;;;5054547;28;20052;-63
2021/06/19 05:11:20;;;;;;;4.57;3.30;;;28.40;49.10;;;;;;5046571;28;20357;-63
2021/06/19 05:13:46;;;;;;;4.63;3.10;;;28.30;49.40;;;;;;5047573;28;20040;-63
2021/06/19 05:16:13;;;;;;;5.25;3.03;;;28.30;49.50;;;;;;5052684;28;20032;-63
2021/06/19 05:18:39;;;;;;;4.13;3.03;;;28.30;49.40;;;;;;5044263;28;20123;-62
2021/06/19 05:21:04;;;;;;;4.00;3.00;;;28.30;49.30;;;;;;5055571;28;20120;-63
2021/06/19 05:23:30;;;;;;;4.93;2.92;;;28.30;49.30;;;;;;5063718;28;20702;-63
2021/06/19 05:25:55;;;;;;;6.32;2.83;;;28.40;49.40;;;;;;5051016;28;20033;-62
2021/06/19 05:28:23;;;;;;;4.40;2.90;;;28.30;49.30;;;;;;5056826;28;20029;-62
2021/06/19 05:30:49;;;;;;;6.00;2.90;;;28.30;49.30;;;;;;5056733;28;20356;-62
2021/06/19 05:33:14;;;;;;;5.38;3.53;;;28.30;49.50;;;;;;5062157;28;20036;-61
2021/06/19 05:35:40;;;;;;;4.82;3.05;;;28.30;50.00;;;;;;5065152;28;20032;-62
2021/06/19 05:38:06;;;;;;;4.80;3.03;;;28.20;50.10;;;;;;5052492;28;20090;-62
2021/06/19 05:40:32;;;;;;;4.60;2.92;;;28.20;50.30;;;;;;5049323;28;20732;-65
2021/06/19 05:42:58;;;;;;;5.05;3.17;;;28.20;50.20;;;;;;5047703;28;20147;-64
2021/06/19 05:45:23;;;;;;;4.82;3.28;;;28.20;50.40;;;;;;5052812;28;20434;-62
2021/06/19 05:47:49;;;;;;;4.72;2.90;;;28.20;50.30;;;;;;5045552;28;20036;-61
2021/06/19 05:50:15;;;;;;;5.30;3.40;;;28.20;50.50;;;;;;5061685;28;20040;-62
2021/06/19 05:52:41;;;;;;;5.40;3.63;;;28.10;50.80;;;;;;5053304;28;20102;-61
2021/06/19 05:55:08;;;;;;;6.13;3.25;;;28.10;50.90;;;;;;5058310;28;20024;-62
2021/06/19 05:57:34;;;;;;;5.63;3.13;;;28.10;50.90;;;;;;5049996;28;20090;-61
2021/06/19 06:00:00;;;;;;;5.10;3.10;;;28.10;50.90;;;;;;5051608;28;20025;-63
2021/06/19 06:02:25;;;;;;;5.47;2.90;;;28.10;50.80;;;;;;5051636;28;20033;-63
2021/06/19 06:04:51;;;;;;;6.40;2.80;;;28.10;50.80;;;;;;5062062;28;20112;-64
2021/06/19 06:07:16;;;;;;;5.00;2.80;;;28.20;50.70;;;;;;5048655;28;20028;-63
2021/06/19 06:09:42;;;;;;;5.40;2.85;;;28.20;50.60;;;;;;5054674;28;20040;-65
2021/06/19 06:12:09;;;;;;;5.10;2.67;;;28.20;50.40;;;;;;5045477;28;20063;-64
2021/06/19 06:14:35;;;;;;;5.05;2.83;;;28.20;50.30;;;;;;5058172;28;20101;-63
2021/06/19 06:17:01;;;;;;;5.15;2.75;;;28.30;50.20;;;;;;5060787;28;20673;-63
2021/06/19 06:19:26;;;;;;;4.22;2.60;;;28.30;50.10;;;;;;5057785;28;20028;-65
2021/06/19 06:21:53;;;;;;;4.55;2.70;;;28.20;50.00;;;;;;5053308;28;20032;-63
2021/06/19 06:24:19;;;;;;;4.97;2.60;;;28.30;50.00;;;;;;5055180;28;20092;-63
2021/06/19 06:26:45;;;;;;;6.28;2.88;;;28.30;49.90;;;;;;5060898;28;20045;-65
2021/06/19 06:29:11;;;;;;;5.30;2.78;;;28.30;49.80;;;;;;5048331;28;20044;-62
2021/06/19 06:31:37;;;;;;;5.40;2.85;;;28.30;49.70;;;;;;5057501;28;20064;-63
2021/06/19 06:34:02;;;;;;;4.53;2.88;;;28.30;49.70;;;;;;5067458;28;20587;-63
2021/06/19 06:36:28;;;;;;;4.90;2.60;;;28.30;49.60;;;;;;5056677;28;20047;-63
2021/06/19 06:38:54;;;;;;;5.97;2.78;;;28.30;49.60;;;;;;5062565;28;20039;-62
2021/06/19 06:41:19;;;;;;;5.03;2.58;;;28.30;49.60;;;;;;5062400;28;20043;-62
2021/06/19 06:43:45;;;;;;;4.53;2.70;;;28.30;49.50;;;;;;5059494;28;20166;-62
2021/06/19 06:46:10;;;;;;;3.92;2.50;;;28.30;49.50;;;;;;5053485;28;20663;-63
2021/06/19 06:48:36;;;;;;;3.70;2.55;;;28.40;49.50;;;;;;5065673;28;20115;-63
2021/06/19 06:51:02;;;;;;;4.35;2.72;;;28.30;49.50;;;;;;5052158;28;20052;-62
2021/06/19 06:53:27;;;;;;;4.30;2.35;;;28.40;49.50;;;;;;5049976;28;20597;-63
2021/06/19 06:55:53;;;;;;;3.50;2.40;;;28.30;49.40;;;;;;5053712;28;20443;-63
2021/06/19 06:58:19;;;;;;;4.85;2.60;;;28.40;49.50;;;;;;5056391;28;20075;-63
2021/06/19 07:00:44;;;;;;;3.72;2.42;;;28.30;49.30;;;;;;5048852;28;20040;-63
2021/06/19 07:03:10;;;;;;;4.25;2.42;;;28.40;49.40;;;;;;5049163;28;20148;-63
2021/06/19 07:05:35;;;;;;;3.70;2.50;;;28.40;49.40;;;;;;5072830;28;20024;-62
2021/06/19 07:08:01;;;;;;;3.47;2.38;;;28.40;49.30;;;;;;5062137;28;20036;-63
2021/06/19 07:10:27;;;;;;;3.78;2.30;;;28.40;49.40;;;;;;5067689;28;20479;-62
2021/06/19 07:12:52;;;;;;;3.67;2.53;;;28.40;49.40;;;;;;5051242;28;21779;-63
2021/06/19 07:15:19;;;;;;;3.35;2.42;;;28.40;49.40;;;;;;5049943;28;20044;-63
2021/06/19 07:17:46;;;;;;;5.05;2.58;;;28.40;49.40;;;;;;5058551;28;20085;-62
2021/06/19 07:20:12;;;;;;;3.97;2.38;;;28.40;49.40;;;;;;5050843;28;20416;-62
2021/06/19 07:22:40;;;;;;;3.95;2.22;;;28.40;49.30;;;;;;5059798;28;20169;-62
2021/06/19 07:25:08;;;;;;;4.57;2.35;;;28.40;49.30;;;;;;5056784;28;20406;-62
2021/06/19 07:27:34;;;;;;;4.55;2.70;;;28.40;49.30;;;;;;5047809;28;20025;-62
2021/06/19 07:30:00;;;;;;;3.20;2.30;;;28.40;49.30;;;;;;5062988;28;20032;-62
2021/06/19 07:32:25;;;;;;;4.43;2.22;;;28.40;49.30;;;;;;5061854;28;20021;-63
2021/06/19 07:34:51;;;;;;;3.63;2.58;;;28.40;49.30;;;;;;5057997;28;20025;-62
2021/06/19 07:37:17;;;;;;;3.60;2.22;;;28.40;49.20;;;;;;5068358;28;20213;-63
2021/06/19 07:39:43;;;;;;;3.65;2.40;;;28.40;49.20;;;;;;5051637;28;20184;-63
2021/06/19 07:42:09;;;;;;;5.15;2.15;;;28.40;49.20;;;;;;5047839;28;20210;-62
2021/06/19 07:44:35;;;;;;;3.55;2.10;;;28.40;49.10;;;;;;5059152;28;20574;-62
2021/06/19 07:47:02;;;;;;;4.55;2.47;;;28.40;49.20;;;;;;5056128;28;20037;-62
2021/06/19 07:49:28;;;;;;;3.80;2.10;;;28.40;49.10;;;;;;5064351;28;20020;-62
2021/06/19 07:51:54;;;;;;;3.50;2.35;;;28.40;49.10;;;;;;5061938;28;20436;-63
2021/06/19 07:54:20;;;;;;;3.97;2.30;;;28.50;49.20;;;;;;5049080;28;20352;-63
2021/06/19 07:56:49;;;;;;;3.63;2.58;;;28.50;49.10;;;;;;5064570;28;20055;-63
2021/06/19 07:59:15;;;;;;;;;;;28.40;49.10;;;;;;5065703;28;20032;-62
2021/06/19 08:01:41;;;;;;;3.85;2.20;;;28.50;49.10;;;;;;5059358;28;19935;-63
2021/06/19 08:04:06;;;;;;;3.42;2.20;;;28.50;49.10;;;;;;5054228;28;20128;-63
2021/06/19 08:06:32;;;;;;;4.40;2.08;;;28.50;49.10;;;;;;5065335;28;20113;-62
2021/06/19 08:08:58;;;;;;;3.30;1.90;;;28.50;49.10;;;;;;5062459;28;20029;-62
2021/06/19 08:11:26;;;;;;;3.95;2.10;;;28.50;49.50;;;;;;5050800;28;20072;-63
2021/06/19 08:13:53;;;;;;;3.67;2.40;;;28.50;49.10;;;;;;5060818;28;20021;-62
2021/06/19 08:16:20;;;;;;;3.45;2.33;;;28.50;49.00;;;;;;5061820;28;20044;-62
2021/06/19 08:18:46;;;;;;;2.72;2.00;;;28.50;49.00;;;;;;5066650;28;20040;-62
2021/06/19 08:21:13;;;;;;;4.00;2.40;;;28.50;49.00;;;;;;5064051;28;20052;-63
2021/06/19 08:23:39;;;;;;;2.88;1.92;;;28.50;49.00;;;;;;5056700;28;20068;-62
2021/06/19 08:26:04;;;;;;;3.60;2.00;;;28.50;49.00;;;;;;5050619;28;20471;-62
2021/06/19 08:28:32;;;;;;;3.35;1.90;;;28.50;48.90;;;;;;5056224;28;20033;-63
2021/06/19 08:30:58;;;;;;;3.53;2.45;;;28.50;48.90;;;;;;5055477;28;20033;-62
2021/06/19 08:33:23;;;;;;;3.70;2.10;;;28.50;48.90;;;;;;5054042;28;20513;-62
2021/06/19 08:35:49;;;;;;;3.30;2.10;;;28.50;48.90;;;;;;5050022;28;20033;-63
2021/06/19 08:38:15;;;;;;;3.67;2.00;;;28.50;48.90;;;;;;5049588;28;20579;-62
2021/06/19 08:40:40;;;;;;;3.88;2.15;;;28.50;48.90;;;;;;5060755;28;20147;-62
2021/06/19 08:43:06;;;;;;;3.78;1.88;;;28.50;48.90;;;;;;5051932;28;20032;-63
2021/06/19 08:45:33;;;;;;;2.67;2.03;;;28.50;48.90;;;;;;5048475;28;20349;-62
2021/06/19 08:48:01;;;;;;;2.85;2.10;;;28.50;48.80;;;;;;5064803;28;20128;-63
2021/06/19 08:50:27;;;;;;;3.58;2.00;;;28.50;48.80;;;;;;5051606;28;20406;-63
2021/06/19 08:52:53;;;;;;;3.30;2.17;;;28.50;48.80;;;;;;5050376;28;20474;-62
2021/06/19 08:55:18;;;;;;;3.03;2.10;;;28.50;48.80;;;;;;5064897;28;20040;-62
2021/06/19 08:57:45;;;;;;;4.22;2.10;;;28.50;48.80;;;;;;5062754;28;20032;-62
2021/06/19 09:00:12;;;;;;;3.28;2.03;;;28.50;48.90;;;;;;5050720;28;20037;-63
2021/06/19 09:02:38;;;;;;;3.75;2.35;;;28.50;48.90;;;;;;5054538;28;20892;-62
2021/06/19 09:05:10;;;;;;;2.90;2.03;;;28.50;49.00;;;;;;5063289;28;20115;-63
2021/06/19 09:07:46;;;;;;;2.35;1.92;;;28.50;49.00;;;;;;5062531;28;20043;-63
2021/06/19 09:10:28;;;;;;;2.50;1.90;;;28.60;49.60;;;;;;5058752;28;20112;-63
2021/06/19 09:12:58;;;;;;;2.83;1.95;;;28.60;49.10;;;;;;5050421;28;20017;-63
2021/06/19 09:15:26;;;;;;;2.45;1.90;;;28.60;49.10;;;;;;5063314;28;20027;-62
2021/06/19 09:18:19;;;;;;;3.50;1.80;;;28.60;49.10;;;;;;5053700;28;20842;-62
2021/06/19 09:20:52;;;;;;;2.88;1.80;;;28.60;49.20;;;;;;5064927;28;20028;-62
2021/06/19 09:23:35;;;;;;;3.50;1.80;;;28.60;49.20;;;;;;5048624;28;20028;-62
2021/06/19 09:26:38;;;;;;;3.03;1.80;;;28.60;49.20;;;;;;5051984;28;20073;-62
2021/06/19 09:29:09;;;;;;;2.60;1.83;;;28.60;49.30;;;;;;5047396;28;20538;-63
2021/06/19 09:31:36;;;;;;;2.55;2.00;;;28.60;49.30;;;;;;5045911;28;20429;-63
2021/06/19 09:34:07;;;;;;;3.80;2.50;;;28.60;49.30;;;;;;5051792;28;20812;-63
2021/06/19 09:36:42;;;;;;;3.03;1.70;;;28.60;49.30;;;;;;5046179;28;20044;-63
2021/06/19 09:39:09;;;;;;;3.45;1.80;;;28.60;49.30;;;;;;5058072;28;20278;-63
2021/06/19 09:41:44;;;;;;;3.13;1.85;;;28.60;49.30;;;;;;5059837;28;20028;-63
2021/06/19 09:44:10;;;;;;;3.03;1.98;;;28.60;49.40;;;;;;5053982;28;20128;-62
2021/06/19 09:46:37;;;;;;;2.55;1.70;;;28.60;49.30;;;;;;5061648;28;20159;-63
2021/06/19 09:49:10;;;;;;;2.30;1.67;;;28.60;49.30;;;;;;5070352;28;20037;-62
2021/06/19 09:51:35;;;;;;;2.67;1.80;;;28.60;49.30;;;;;;5050822;28;20087;-62
2021/06/19 09:54:06;;;;;;;2.00;1.60;;;28.60;49.30;;;;;;5051427;28;20024;-62
2021/06/19 09:56:47;;;;;;;2.55;1.70;;;28.60;49.30;;;;;;5056041;28;20633;-62
2021/06/19 09:59:40;;;;;;;2.22;1.63;;;28.70;49.30;;;;;;5052471;28;20033;-61
2021/06/19 10:02:27;;;;;;;2.30;1.70;;;28.70;49.30;;;;;;5042061;28;20179;-62
2021/06/19 10:04:56;;;;;;;2.92;1.70;;;28.70;49.20;;;;;;5061860;28;20093;-62
2021/06/19 10:07:23;;;;;;;2.28;1.50;;;28.70;49.20;;;;;;5057775;28;20028;-63
2021/06/19 10:09:51;;;;;;;2.28;1.63;;;28.70;49.10;;;;;;5061450;28;20043;-61
2021/06/19 10:12:21;;;;;;;2.30;1.70;;;28.70;49.10;;;;;;5055832;28;20073;-61
2021/06/19 10:14:49;;;;;;;2.40;1.80;;;28.70;49.00;;;;;;5058228;28;20047;-62
2021/06/19 10:17:17;;;;;;;2.38;1.70;;;28.70;49.00;;;;;;5057481;28;20028;-63
2021/06/19 10:19:44;;;;;;;3.65;1.50;;;28.80;49.00;;;;;;5057833;28;20029;-62
2021/06/19 10:22:10;;;;;;;2.15;1.55;;;28.80;49.00;;;;;;5053275;28;20840;-61
2021/06/19 10:24:37;;;;;;;2.50;1.40;;;28.80;49.10;;;;;;5058396;28;20033;-61
2021/06/19 10:27:04;;;;;;;2.60;1.60;;;28.80;49.60;;;;;;5051972;28;20021;-61
2021/06/19 10:29:30;;;;;;;2.22;1.52;;;28.80;49.00;;;;;;5060799;28;20449;-61
2021/06/19 10:31:56;;;;;;;2.20;1.45;;;28.80;49.10;;;;;;5063269;28;20041;-61
2021/06/19 10:34:27;;;;;;;1.90;1.40;;;28.80;48.90;;;;;;5057773;28;20078;-61
2021/06/19 10:36:56;;;;;;;2.35;1.60;;;28.80;48.90;;;;;;5058270;28;20036;-61
2021/06/19 10:39:34;;;;;;;2.60;1.58;;;28.80;48.90;;;;;;5058577;28;20058;-61
2021/06/19 10:42:01;;;;;;;2.00;1.40;;;28.90;48.80;;;;;;5056513;28;20127;-61
2021/06/19 10:44:49;;;;;;;2.67;1.50;;;28.90;48.80;;;;;;5047412;28;20036;-62
2021/06/19 10:47:20;;;;;;;1.80;1.30;;;28.80;48.80;;;;;;5048568;28;20074;-62
2021/06/19 10:49:46;;;;;;;2.20;1.40;;;28.80;48.80;;;;;;5055481;28;20044;-62
2021/06/19 10:52:28;;;;;;;3.05;1.45;;;28.90;48.80;;;;;;5062078;28;20313;-62
2021/06/19 10:55:18;;;;;;;2.63;1.55;;;28.90;48.90;;;;;;5054371;28;20486;-61
2021/06/19 10:57:45;;;;;;;2.33;1.52;;;28.90;48.80;;;;;;5053331;28;20048;-61
2021/06/19 11:00:33;;;;;;;3.63;1.60;;;28.90;48.80;;;;;;5055983;28;20028;-61
2021/06/19 11:03:08;;;;;;;4.35;1.50;;;28.90;48.80;;;;;;5054537;28;20059;-61
2021/06/19 11:05:50;;;;;;;2.75;1.55;;;28.90;48.80;;;;;;5050835;28;20065;-61
2021/06/19 11:08:16;;;;;;;1.95;1.55;;;28.90;48.70;;;;;;5057821;28;20035;-61
2021/06/19 11:10:45;;;;;;;1.58;1.38;;;28.90;48.80;;;;;;5052798;28;20029;-62
2021/06/19 11:13:29;;;;;;;2.00;1.33;;;28.90;48.80;;;;;;5057454;28;20025;-62
2021/06/19 11:16:05;;;;;;;2.63;1.42;;;29.00;49.10;;;;;;5054445;28;20020;-61
2021/06/19 11:18:49;;;;;;;3.47;1.60;;;28.90;49.00;;;;;;5056082;28;20519;-63
2021/06/19 11:21:17;;;;;;;2.22;1.40;;;29.00;48.80;;;;;;5059928;28;20025;-61
2021/06/19 11:24:04;;;;;;;2.38;1.38;;;29.00;48.90;;;;;;5057028;28;20048;-61
2021/06/19 11:26:57;;;;;;;2.60;1.40;;;29.00;48.80;;;;;;5052466;28;20455;-61
2021/06/19 11:29:38;;;;;;;4.18;1.40;;;29.00;49.10;;;;;;5058452;28;20047;-62
2021/06/19 11:32:34;;;;;;;2.33;1.40;;;29.00;49.60;;;;;;5054490;28;20139;-63
2021/06/19 11:35:20;;;;;;;4.55;1.50;;;29.00;49.70;;;;;;5049938;28;20321;-62
2021/06/19 11:37:59;;;;;;;2.80;1.50;;;29.00;49.80;;;;;;5050125;28;20025;-62
2021/06/19 11:40:34;;;;;;;2.20;1.40;;;29.00;49.80;;;;;;5053199;28;20036;-62
2021/06/19 11:43:00;;;;;;;2.13;1.30;;;29.10;49.90;;;;;;5056807;28;20029;-62
2021/06/19 11:45:26;;;;;;;2.38;1.40;;;29.00;49.80;;;;;;5048200;28;20039;-62
2021/06/19 11:48:10;;;;;;;2.58;1.40;;;29.00;49.60;;;;;;5061310;28;20035;-62
2021/06/19 11:50:38;;;;;;;2.97;1.60;;;29.00;49.70;;;;;;5049634;28;20452;-62
2021/06/19 11:53:31;;;;;;;3.05;1.50;;;29.00;49.50;;;;;;5055438;28;20378;-63
2021/06/19 11:56:09;;;;;;;2.38;1.48;;;29.10;49.60;;;;;;5050501;28;21850;-62
2021/06/19 11:58:46;;;;;;;2.58;1.70;;;29.00;49.40;;;;;;5057448;28;20028;-63
2021/06/19 12:01:13;;;;;;;1.98;1.50;;;29.10;49.50;;;;;;5050834;28;20037;-62
2021/06/19 12:03:39;;;;;;;1.90;1.27;;;29.10;49.40;;;;;;5051917;28;20028;-62
2021/06/19 12:06:04;;;;;;;2.05;1.45;;;29.10;49.30;;;;;;5055639;28;20040;-63
2021/06/19 12:08:31;;;;;;;1.67;1.20;;;29.10;49.20;;;;;;5055115;28;20104;-62
2021/06/19 12:10:57;;;;;;;2.35;1.42;;;29.10;49.10;;;;;;5062388;28;20167;-62
2021/06/19 12:13:40;;;;;;;2.05;1.27;;;29.10;49.10;;;;;;5061627;28;20515;-63
2021/06/19 12:16:09;;;;;;;1.88;1.20;;;29.10;49.10;;;;;;5062454;28;20032;-63
2021/06/19 12:18:35;;;;;;;1.90;1.35;;;29.10;49.30;;;;;;5062548;28;20040;-63
2021/06/19 12:21:11;;;;;;;1.98;1.30;;;29.10;49.30;;;;;;5058018;28;20444;-64
2021/06/19 12:23:44;;;;;;;1.73;1.30;;;29.10;49.30;;;;;;5050196;28;20062;-63
2021/06/19 12:26:12;;;;;;;2.63;1.45;;;29.20;49.40;;;;;;5057387;28;20036;-63
2021/06/19 12:28:44;;;;;;;2.47;1.38;;;29.10;49.30;;;;;;5050161;28;20785;-63
2021/06/19 12:31:10;;;;;;;1.95;1.45;;;29.20;49.40;;;;;;5047672;28;20519;-63
2021/06/19 12:33:36;;;;;;;1.95;1.10;;;29.20;49.40;;;;;;5054781;28;20108;-64
2021/06/19 12:36:04;;;;;;;2.17;1.30;;;29.20;49.40;;;;;;5059061;28;20029;-62
2021/06/19 12:38:30;;;;;;;1.90;1.25;;;29.20;49.40;;;;;;5056362;28;20064;-64
2021/06/19 12:40:58;;;;;;;1.80;1.45;;;29.20;49.90;;;;;;5063376;28;20111;-64
2021/06/19 12:43:24;;;;;;;2.20;1.30;;;29.20;49.40;;;;;;5062828;28;20021;-62
2021/06/19 12:45:52;;;;;;;2.08;1.20;;;29.20;49.40;;;;;;5062765;28;20115;-63
2021/06/19 12:48:29;;;;;;;1.85;1.30;;;29.20;49.40;;;;;;5055052;28;20383;-62
2021/06/19 12:50:58;;;;;;;3.20;1.40;;;29.20;49.40;;;;;;5057349;28;20047;-63
2021/06/19 12:53:35;;;;;;;1.83;1.20;;;29.30;49.60;;;;;;5056587;28;20021;-63
2021/06/19 12:56:08;;;;;;;2.25;1.40;;;29.30;49.60;;;;;;5047991;28;20041;-62